This is the latest recevied weather packets stored in our database for station/object N0TKN. If no packets are shown the sender has not sent any weather packets the latest 10 day(s).
| Time | Temp. | Humidity | Pressure | Rain* | Wind** | Luminosity | Snow |
|---|---|---|---|---|---|---|---|
| 1777427118 | 12.22° C | 99% | 1013.7 hPa | 0 mm | - | 0 W/m² | - |
| 1777426518 | 12.78° C | 99% | 1013.5 hPa | 0 mm | - | 0 W/m² | - |
| 1777425918 | 12.78° C | 99% | 1013.4 hPa | 0 mm | - | 0 W/m² | - |
| 1777425318 | 12.78° C | 100% | 1013.3 hPa | 0 mm | - | 0 W/m² | - |
| 1777424718 | 12.78° C | 98% | 1013.1 hPa | 0 mm | - | 0 W/m² | - |
| 1777424116 | 13.33° C | 97% | 1012.9 hPa | 0 mm | - | 1 W/m² | - |
| 1777423516 | 13.33° C | 95% | 1012.7 hPa | 0 mm | - | 2 W/m² | - |
| 1777422916 | 13.33° C | 94% | 1012.3 hPa | 0 mm | - | 4 W/m² | - |
| 1777422316 | 13.33° C | 95% | 1012.1 hPa | 0 mm | - | 4 W/m² | - |
| 1777421716 | 13.33° C | 95% | 1011.9 hPa | 0 mm | - | 8 W/m² | - |
| 1777421117 | 13.33° C | 95% | 1011.7 hPa | 0 mm | - | 8 W/m² | - |
| 1777420517 | 13.33° C | 95% | 1011.7 hPa | 0 mm | - | 10 W/m² | - |
| 1777419917 | 13.33° C | 94% | 1011.6 hPa | 0 mm | - | 13 W/m² | - |
| 1777419317 | 13.33° C | 95% | 1011.6 hPa | 0 mm | - | 19 W/m² | - |
| 1777418717 | 13.33° C | 95% | 1011.6 hPa | 0 mm | - | 19 W/m² | - |
| 1777418117 | 13.33° C | 95% | 1011.4 hPa | 0 mm | - | 30 W/m² | - |
| 1777417518 | 13.33° C | 95% | 1011.1 hPa | 0 mm | - | 48 W/m² | - |
| 1777416918 | 13.33° C | 95% | 1011.1 hPa | 0 mm | - | 67 W/m² | - |
| 1777416318 | 13.33° C | 95% | 1011.4 hPa | 0 mm | - | 70 W/m² | - |
| 1777415718 | 13.33° C | 96% | 1011.6 hPa | 0 mm | - | 67 W/m² | - |
| 1777415118 | 13.89° C | 96% | 1011.5 hPa | 0 mm | - | 112 W/m² | - |
| 1777414518 | 13.89° C | 95% | 1011.7 hPa | 0.76 mm | - | 132 W/m² | - |
| 1777413919 | 13.33° C | 96% | 1011.5 hPa | 4.83 mm | - | 237 W/m² | - |
| 1777413318 | 13.33° C | 96% | 1012.2 hPa | 5.84 mm | - | 118 W/m² | - |
| 1777412716 | 13.33° C | 97% | 1011.6 hPa | 6.6 mm | - | 414 W/m² | - |
* Rain latest hour (hover to see other rain measurements)
** Current wind speed in m/s (hover to see current wind gust speed)